Stations météo

Publicité
Paris St-Maur, France (7154): Température de l'air & dewpoint: 19.05.2018 12:00:00 - 25.05.2018 12:00:00 (CEST)Paris St-Maur, France (7154): Vitesse du vent & gusts: 19.05.2018 12:00:00 - 25.05.2018 12:00:00 (CEST)Paris St-Maur, France (7154): Direction du vent: 19.05.2018 12:00:00 - 25.05.2018 12:00:00 (CEST)Paris St-Maur, France (7154): Quantités de précipitations: 19.05.2018 12:00:00 - 25.05.2018 12:00:00 (CEST)
Date & Time tt [°C] td [°C] ff [km/h] ff [knt] fx [km/h] fx [knt] dd rr [mm]
25.05.2018 12:00:00 - - - - - - - -
25.05.2018 11:00:00 23,2 14,7 8 4 16 9 N 0,0
25.05.2018 10:00:00 19,9 13,6 9 5 15 8 NNE 0,0
25.05.2018 09:00:00 16,6 14,4 8 4 16 9 N 0,0
25.05.2018 08:00:00 14,7 13,9 5 3 13 7 NNE -
25.05.2018 07:00:00 13,8 13,2 5 3 9 5 NNE 0,0
25.05.2018 06:00:00 13,5 12,7 8 4 8 4 NE 0,0
25.05.2018 05:00:00 13,7 12,8 4 2 5 3 NE 0,0
25.05.2018 04:00:00 14,2 13,1 4 2 8 4 N 0,0
25.05.2018 03:00:00 14,7 13,1 4 2 9 5 NE 0,0
25.05.2018 02:00:00 15,3 13,1 5 3 9 5 N -
25.05.2018 01:00:00 16,0 13,5 5 3 13 7 N 0,0
25.05.2018 00:00:00 17,0 13,7 8 4 13 7 NE 0,0
24.05.2018 23:00:00 18,5 13,8 5 3 18 10 NNE 0,0
24.05.2018 22:00:00 20,0 12,5 5 3 16 9 N 0,0
24.05.2018 21:00:00 22,1 9,6 8 4 18 10 WSW 0,0
24.05.2018 20:00:00 23,5 10,5 13 7 24 13 WSW -
24.05.2018 19:00:00 25,1 9,8 13 7 28 15 WSW 0,0
24.05.2018 18:00:00 26,1 11,1 11 6 28 15 SW 0,0
24.05.2018 17:00:00 25,5 11,6 11 6 24 13 SW 0,0
24.05.2018 16:00:00 25,7 12,9 15 8 28 15 SW 0,0
24.05.2018 15:00:00 24,6 12,5 8 4 18 10 S 0,0
24.05.2018 14:00:00 25,4 12,6 8 4 15 8 SE -
24.05.2018 13:00:00 22,2 13,8 8 4 13 7 SSW 0,0
24.05.2018 12:00:00 22,0 14,6 5 3 11 6 W 0,0
24.05.2018 11:00:00 21,0 14,9 4 2 9 5 ENE 0,0
24.05.2018 10:00:00 18,4 14,3 2 1 8 4 N 0,0
24.05.2018 09:00:00 15,6 14,5 2 1 11 6 NNW 0,0
24.05.2018 08:00:00 14,7 14,2 5 3 13 7 NNE -
24.05.2018 07:00:00 13,9 13,3 4 2 5 3 N 0,0
24.05.2018 06:00:00 13,7 13,1 2 1 5 3 W 0,0
24.05.2018 05:00:00 14,0 13,2 4 2 8 4 N 0,0
24.05.2018 04:00:00 14,5 13,4 4 2 9 5 N 0,0
24.05.2018 03:00:00 15,5 13,7 5 3 11 6 N 0,0
24.05.2018 02:00:00 15,9 13,9 8 4 13 7 NNW -
24.05.2018 01:00:00 16,6 14,1 8 4 16 9 NNW 0,0
24.05.2018 00:00:00 17,1 14,2 5 3 18 10 N 0,0
23.05.2018 23:00:00 17,1 14,2 9 5 22 12 N 0,0
23.05.2018 22:00:00 17,8 13,9 11 6 18 10 NNW 0,0
23.05.2018 21:00:00 18,6 14,1 8 4 16 9 N 0,0
23.05.2018 20:00:00 19,2 13,6 8 4 22 12 N -
23.05.2018 19:00:00 19,7 13,4 11 6 24 13 N 0,0
23.05.2018 18:00:00 20,9 13,3 13 7 26 14 N 0,0
23.05.2018 17:00:00 21,7 12,8 13 7 26 14 N 0,0
23.05.2018 16:00:00 21,8 13,2 13 7 29 16 NNE 0,0
23.05.2018 15:00:00 22,4 13,2 15 8 31 17 NNE 0,0
23.05.2018 14:00:00 22,0 13,1 15 8 26 14 NNE -
23.05.2018 13:00:00 21,3 13,2 11 6 21 11 NNE 0,0
23.05.2018 12:00:00 19,1 12,6 9 5 21 11 N 0,0
23.05.2018 11:00:00 15,1 12,0 9 5 26 14 N 0,0
23.05.2018 10:00:00 14,0 11,7 13 7 26 14 N 0,0
23.05.2018 09:00:00 13,4 11,6 13 7 28 15 N 0,0
23.05.2018 08:00:00 13,3 12,2 11 6 22 12 N -
23.05.2018 07:00:00 12,7 12,1 9 5 24 13 N 0,0
23.05.2018 06:00:00 12,7 12,1 11 6 22 12 N 0,2
23.05.2018 05:00:00 13,1 12,5 8 4 15 8 N 0,0
23.05.2018 04:00:00 13,9 13,3 8 4 16 9 N 0,0
23.05.2018 03:00:00 14,1 13,5 4 2 9 5 NNW 0,0
23.05.2018 02:00:00 14,6 14,0 5 3 9 5 NNW -
23.05.2018 01:00:00 14,7 13,7 4 2 8 4 WSW 0,0
23.05.2018 00:00:00 15,1 13,8 5 3 8 4 WSW 0,0
22.05.2018 23:00:00 16,0 14,4 2 1 5 3 ENE 0,0
22.05.2018 22:00:00 16,3 14,3 0 0 8 4 N 0,0
22.05.2018 21:00:00 17,0 14,3 5 3 9 5 NNW 0,0
22.05.2018 20:00:00 16,9 14,4 5 3 16 9 N -
22.05.2018 19:00:00 17,4 14,3 8 4 26 14 N 0,4
22.05.2018 18:00:00 19,4 10,9 8 4 26 14 WNW 0,0
22.05.2018 17:00:00 21,5 12,6 8 4 16 9 WSW 0,0
22.05.2018 16:00:00 21,8 12,1 8 4 18 10 SSW 0,0
22.05.2018 15:00:00 22,1 11,2 0 0 11 6 N 0,0
22.05.2018 14:00:00 22,7 12,3 4 2 22 12 N -
22.05.2018 13:00:00 24,9 11,5 4 2 13 7 NNE 0,0
22.05.2018 12:00:00 23,8 10,1 4 2 13 7 SW 0,0
22.05.2018 11:00:00 22,5 10,9 2 1 11 6 ENE 0,0
22.05.2018 10:00:00 20,0 11,0 4 2 11 6 NE 0,0
22.05.2018 09:00:00 15,4 12,3 5 3 11 6 NNE 0,0
22.05.2018 08:00:00 13,7 13,1 8 4 13 7 N -
22.05.2018 07:00:00 12,9 12,1 5 3 8 4 N 0,0
22.05.2018 06:00:00 13,1 12,2 2 1 8 4 ENE 0,0
22.05.2018 05:00:00 13,6 12,3 5 3 9 5 N 0,0
22.05.2018 04:00:00 14,1 12,5 8 4 9 5 NNW 0,0
22.05.2018 03:00:00 14,9 12,8 5 3 9 5 N 0,0
22.05.2018 02:00:00 15,8 12,4 5 3 9 5 NNW -
22.05.2018 01:00:00 16,9 12,2 4 2 15 8 NNW 0,0
22.05.2018 00:00:00 17,3 12,4 5 3 9 5 NNW 0,0
21.05.2018 23:00:00 18,1 11,9 4 2 15 8 N 0,0
21.05.2018 22:00:00 18,6 10,9 2 1 11 6 N 0,0
21.05.2018 21:00:00 20,0 11,0 4 2 8 4 ESE 0,0
21.05.2018 20:00:00 22,2 10,7 4 2 11 6 SSE -
21.05.2018 19:00:00 24,4 9,9 2 1 13 7 SSW 0,0
21.05.2018 18:00:00 24,6 10,5 4 2 9 5 NNE 0,0
21.05.2018 17:00:00 23,0 9,7 4 2 18 10 S 0,0
21.05.2018 16:00:00 23,6 9,6 8 4 16 9 SSE 0,0
21.05.2018 15:00:00 22,7 10,5 5 3 15 8 S 0,0
21.05.2018 14:00:00 22,5 11,9 4 2 15 8 NNE -
21.05.2018 13:00:00 21,5 11,8 4 2 15 8 NNW 0,0
21.05.2018 12:00:00 21,1 11,7 5 3 16 9 ESE 0,0
21.05.2018 11:00:00 19,6 11,1 4 2 13 7 NE 0,0
21.05.2018 10:00:00 17,3 10,4 4 2 11 6 NNE 0,0
21.05.2018 09:00:00 14,2 10,8 8 4 13 7 NNE 0,0
21.05.2018 08:00:00 13,1 10,6 4 2 9 5 NNE -
21.05.2018 07:00:00 12,4 10,6 8 4 13 7 NNE 0,0
21.05.2018 06:00:00 12,0 10,2 8 4 16 9 NNE 0,0
21.05.2018 05:00:00 12,8 10,5 8 4 11 6 NNE 0,0
21.05.2018 04:00:00 12,8 11,0 5 3 15 8 N 0,0
21.05.2018 03:00:00 13,1 10,8 5 3 18 10 NNE 0,0
21.05.2018 02:00:00 13,8 11,3 9 5 18 10 NNE -
21.05.2018 01:00:00 14,2 11,4 11 6 21 11 NNE 0,0
21.05.2018 00:00:00 15,2 11,0 5 3 15 8 N 0,0
20.05.2018 23:00:00 16,5 10,8 8 4 21 11 ENE 0,0
20.05.2018 22:00:00 18,2 10,6 11 6 26 14 ENE 0,0
20.05.2018 21:00:00 19,9 10,0 16 9 39 21 E 0,0
20.05.2018 20:00:00 21,1 7,3 13 7 29 16 NE -
20.05.2018 19:00:00 23,4 7,5 9 5 22 12 N 0,0
20.05.2018 18:00:00 24,7 9,0 9 5 28 15 NE 0,0
20.05.2018 17:00:00 24,4 7,1 13 7 29 16 NNE 0,0
20.05.2018 16:00:00 24,1 7,3 13 7 29 16 E 0,0
20.05.2018 15:00:00 23,8 9,0 8 4 28 15 NNE 0,0
20.05.2018 14:00:00 22,2 11,0 13 7 28 15 NE -
20.05.2018 13:00:00 21,7 10,5 9 5 22 12 NNE 0,0
20.05.2018 12:00:00 19,8 10,5 9 5 24 13 N 0,0
20.05.2018 11:00:00 16,8 9,0 9 5 22 12 N 0,0
20.05.2018 10:00:00 13,6 8,2 8 4 18 10 N 0,0
20.05.2018 09:00:00 10,3 8,2 9 5 16 9 N 0,0
20.05.2018 08:00:00 8,8 7,6 9 5 18 10 NNE -
20.05.2018 07:00:00 8,2 7,3 9 5 22 12 NNE 0,0
20.05.2018 06:00:00 8,2 7,1 11 6 18 10 N 0,0
20.05.2018 05:00:00 8,5 7,3 11 6 18 10 N 0,0
20.05.2018 04:00:00 8,6 7,2 9 5 16 9 N 0,0
20.05.2018 03:00:00 8,9 7,0 8 4 18 10 N 0,0
20.05.2018 02:00:00 9,6 7,0 9 5 22 12 NNE -
20.05.2018 01:00:00 10,6 7,3 11 6 26 14 NNE 0,0
20.05.2018 00:00:00 11,7 7,6 13 7 29 16 NNE 0,0
19.05.2018 23:00:00 12,9 8,2 16 9 29 16 NNE 0,0
19.05.2018 22:00:00 14,3 8,5 15 8 29 16 NNE 0,0
19.05.2018 21:00:00 16,2 8,4 15 8 31 17 NNE 0,0
19.05.2018 20:00:00 17,7 6,8 16 9 29 16 NNE -
19.05.2018 19:00:00 19,7 5,7 13 7 31 17 NE 0,0
19.05.2018 18:00:00 21,5 5,4 15 8 29 16 N 0,0
19.05.2018 17:00:00 21,9 6,1 13 7 31 17 NE 0,0
19.05.2018 16:00:00 21,5 6,2 15 8 28 15 NE 0,0
19.05.2018 15:00:00 21,0 7,9 13 7 29 16 NNE 0,0
19.05.2018 14:00:00 20,4 6,7 13 7 26 14 N -
19.05.2018 13:00:00 19,8 7,2 13 7 26 14 NE 0,0
19.05.2018 12:00:00 18,1 8,9 16 9 28 15 N 0,0

tt = Température de l'air
td = dewpoint
ff = Vitesse du vent
fx = gusts
dd = Direction du vent
rr = Quantités de précipitations

stations d'obs. à proximité